createdAt,value
2022-10-18T00:00:47.996Z,22.17
2022-10-18T00:03:15.446Z,24.65
2022-10-18T00:05:42.862Z,25.48
2022-10-18T00:08:10.331Z,25.45
2022-10-18T00:10:37.822Z,28.42
2022-10-18T00:13:05.408Z,26.85
2022-10-18T00:15:32.886Z,24.98
2022-10-18T00:18:00.379Z,27.13
2022-10-18T00:20:27.911Z,26.27
2022-10-18T00:22:55.350Z,28.23
2022-10-18T00:25:22.791Z,29.20
2022-10-18T00:27:50.184Z,28.60
2022-10-18T00:30:17.597Z,27.77
2022-10-18T00:32:45.039Z,26.23
2022-10-18T00:35:12.483Z,25.35
2022-10-18T00:37:39.939Z,25.50
2022-10-18T00:40:08.001Z,27.10
2022-10-18T00:42:36.507Z,27.95
2022-10-18T00:45:22.335Z,28.05
2022-10-18T00:48:03.674Z,25.00
2022-10-18T00:50:32.294Z,24.15
2022-10-18T00:53:02.182Z,26.20
2022-10-18T00:55:31.621Z,22.70
2022-10-18T00:57:59.092Z,23.17
2022-10-18T01:00:26.631Z,22.20
2022-10-18T01:02:54.259Z,23.40
2022-10-18T01:05:21.828Z,22.10
2022-10-18T01:08:27.094Z,23.65
2022-10-18T01:11:12.650Z,23.50
2022-10-18T01:13:50.097Z,23.70
2022-10-18T01:16:34.778Z,24.25
2022-10-18T01:21:56.099Z,25.42
2022-10-18T01:24:29.549Z,25.30
2022-10-18T01:27:05.761Z,25.73
2022-10-18T01:29:43.893Z,22.63
2022-10-18T01:32:33.264Z,24.83
2022-10-18T01:35:03.219Z,27.58
2022-10-18T01:37:31.040Z,27.15
2022-10-18T01:39:58.763Z,25.00
2022-10-18T01:42:26.227Z,27.60
2022-10-18T01:44:53.695Z,24.95
2022-10-18T01:47:21.107Z,24.02
2022-10-18T01:49:48.536Z,23.70
2022-10-18T01:52:16.398Z,26.30
2022-10-18T01:54:46.209Z,26.05
2022-10-18T01:57:22.768Z,29.35
2022-10-18T02:00:02.096Z,25.50
2022-10-18T02:02:51.159Z,24.85
2022-10-18T02:05:29.751Z,26.45
2022-10-18T02:08:23.124Z,24.38
2022-10-18T02:11:04.520Z,23.80
2022-10-18T02:14:03.659Z,25.33
2022-10-18T02:16:41.149Z,25.50
2022-10-18T02:19:18.401Z,26.08
2022-10-18T02:21:45.918Z,29.08
2022-10-18T02:24:15.687Z,27.20
2022-10-18T02:26:43.194Z,28.10
2022-10-18T02:29:11.551Z,24.90
2022-10-18T02:31:47.893Z,26.92
2022-10-18T02:34:29.448Z,27.42
2022-10-18T02:36:58.615Z,23.80
2022-10-18T02:39:36.796Z,28.00
2022-10-18T02:42:08.158Z,27.15
2022-10-18T02:44:35.798Z,24.20
2022-10-18T02:47:03.895Z,25.00
2022-10-18T02:49:31.395Z,24.63
2022-10-18T02:51:58.862Z,24.70
2022-10-18T02:54:26.342Z,26.67
2022-10-18T02:56:56.901Z,24.73
2022-10-18T02:59:24.411Z,23.88
2022-10-18T03:01:52.049Z,23.67
2022-10-18T03:04:19.703Z,26.58
2022-10-18T03:06:47.458Z,23.95
2022-10-18T03:09:14.974Z,23.33
2022-10-18T03:11:42.619Z,23.50
2022-10-18T03:14:10.177Z,23.20
2022-10-18T03:16:37.665Z,25.33
2022-10-18T03:19:05.205Z,25.17
2022-10-18T03:21:32.704Z,25.98
2022-10-18T03:24:00.223Z,25.05
2022-10-18T03:26:27.714Z,23.45
2022-10-18T03:28:55.421Z,25.08
2022-10-18T03:31:23.098Z,26.63
2022-10-18T03:33:50.527Z,26.85
2022-10-18T03:36:18.023Z,25.50
2022-10-18T03:38:45.567Z,23.00
2022-10-18T03:41:13.046Z,23.10
2022-10-18T03:43:40.441Z,24.92
2022-10-18T03:46:07.931Z,24.63
2022-10-18T03:48:35.569Z,26.33
2022-10-18T03:51:03.056Z,27.35
2022-10-18T03:53:30.488Z,26.98
2022-10-18T03:55:57.882Z,24.83
2022-10-18T03:58:25.430Z,25.67
2022-10-18T04:00:53.169Z,24.85
2022-10-18T04:03:21.144Z,24.48
2022-10-18T04:05:48.781Z,24.17
2022-10-18T04:08:16.248Z,25.30
2022-10-18T04:10:44.408Z,24.63
2022-10-18T04:13:12.389Z,25.77
2022-10-18T04:15:39.832Z,24.42
2022-10-18T04:18:08.616Z,25.02
2022-10-18T04:20:36.468Z,25.52
2022-10-18T04:23:03.901Z,24.55
2022-10-18T04:25:31.460Z,26.48
2022-10-18T04:27:58.940Z,25.95
2022-10-18T04:30:26.374Z,24.60
2022-10-18T04:32:53.901Z,21.73
2022-10-18T04:35:24.556Z,24.73
2022-10-18T04:37:52.082Z,22.17
2022-10-18T04:40:20.153Z,21.98
2022-10-18T04:42:47.721Z,22.92
2022-10-18T04:45:15.126Z,23.90
2022-10-18T04:47:42.643Z,23.85
2022-10-18T04:50:10.132Z,23.20
2022-10-18T04:52:37.664Z,20.95
2022-10-18T04:55:05.406Z,26.33
2022-10-18T04:57:33.052Z,21.33
2022-10-18T05:00:00.618Z,21.20
2022-10-18T05:02:28.049Z,20.13
2022-10-18T05:04:55.516Z,19.00
2022-10-18T05:07:22.991Z,19.70
2022-10-18T05:09:50.463Z,21.08
2022-10-18T05:12:17.935Z,18.60
2022-10-18T05:14:45.403Z,17.73
2022-10-18T05:17:12.821Z,19.48
2022-10-18T05:19:40.279Z,18.85
2022-10-18T05:22:09.376Z,18.60
2022-10-18T05:24:36.867Z,17.20
2022-10-18T05:27:04.362Z,17.17
2022-10-18T05:29:31.754Z,17.65
2022-10-18T05:31:59.202Z,21.25
2022-10-18T05:34:27.407Z,19.83
2022-10-18T05:36:54.872Z,20.27
2022-10-18T05:39:22.307Z,19.65
2022-10-18T05:41:49.783Z,18.90
2022-10-18T05:44:17.234Z,19.42
2022-10-18T05:46:44.679Z,19.77
2022-10-18T05:49:12.355Z,21.83
2022-10-18T05:51:39.791Z,20.05
2022-10-18T05:54:07.331Z,20.50
2022-10-18T05:56:34.893Z,21.05
2022-10-18T05:59:05.052Z,22.40
2022-10-18T06:01:32.513Z,19.02
2022-10-18T06:04:00.005Z,20.40
2022-10-18T06:06:27.426Z,21.38
2022-10-18T06:08:54.848Z,22.38
2022-10-18T06:11:22.333Z,19.95
2022-10-18T06:13:50.541Z,17.90
2022-10-18T06:16:19.829Z,21.30
2022-10-18T06:18:51.349Z,21.90
2022-10-18T06:21:19.036Z,20.80
2022-10-18T06:23:54.111Z,19.85
2022-10-18T06:26:22.084Z,19.02
2022-10-18T06:28:49.657Z,19.38
2022-10-18T06:31:17.347Z,21.15
2022-10-18T06:33:46.097Z,17.85
2022-10-18T06:36:17.728Z,18.40
2022-10-18T06:38:45.420Z,19.65
2022-10-18T06:41:12.924Z,17.27
2022-10-18T06:43:40.495Z,19.27
2022-10-18T06:46:08.244Z,18.75
2022-10-18T06:48:35.919Z,19.65
2022-10-18T06:51:04.976Z,19.38
2022-10-18T06:53:33.711Z,18.92
2022-10-18T06:56:12.984Z,20.40
2022-10-18T06:58:40.903Z,21.23
2022-10-18T07:01:12.970Z,21.05
2022-10-18T07:03:40.439Z,21.50
2022-10-18T07:06:08.852Z,22.00
2022-10-18T07:08:36.485Z,21.85
2022-10-18T07:11:04.465Z,19.23
2022-10-18T07:13:33.230Z,21.63
2022-10-18T07:16:06.026Z,19.60
2022-10-18T07:18:37.818Z,19.48
2022-10-18T07:21:08.006Z,19.90
2022-10-18T07:23:36.695Z,19.08
2022-10-18T07:26:13.105Z,24.08
2022-10-18T07:28:40.662Z,20.83
2022-10-18T07:31:08.500Z,24.17
2022-10-18T07:33:37.947Z,20.17
2022-10-18T07:36:06.930Z,19.33
2022-10-18T07:38:34.755Z,23.90
2022-10-18T07:41:03.420Z,24.50
2022-10-18T07:43:30.926Z,20.60
2022-10-18T07:45:59.790Z,23.30
2022-10-18T07:48:27.273Z,21.55
2022-10-18T07:50:54.891Z,22.38
2022-10-18T07:53:24.952Z,21.98
2022-10-18T07:55:52.433Z,21.25
2022-10-18T07:58:19.919Z,22.15
2022-10-18T08:00:47.361Z,26.42
2022-10-18T08:03:14.785Z,22.17
2022-10-18T08:05:42.210Z,22.08
2022-10-18T08:08:09.662Z,22.63
2022-10-18T08:10:37.109Z,21.02
2022-10-18T08:13:04.604Z,20.90
2022-10-18T08:15:31.994Z,21.55
2022-10-18T08:17:59.443Z,19.23
2022-10-18T08:20:30.750Z,21.73
2022-10-18T08:23:00.432Z,20.05
2022-10-18T08:25:28.854Z,20.02
2022-10-18T08:27:56.435Z,18.55
2022-10-18T08:30:24.034Z,19.63
2022-10-18T08:32:51.448Z,21.25
2022-10-18T08:35:20.260Z,17.33
2022-10-18T08:37:48.540Z,19.80
2022-10-18T08:40:16.078Z,20.55
2022-10-18T08:43:03.150Z,19.30
2022-10-18T08:45:41.485Z,17.85
2022-10-18T08:48:31.362Z,18.05
2022-10-18T08:50:58.912Z,15.00
2022-10-18T08:53:36.202Z,18.08
2022-10-18T08:56:14.458Z,15.68
2022-10-18T08:58:45.036Z,14.35
2022-10-18T09:01:23.567Z,18.60
2022-10-18T09:04:28.005Z,19.08
2022-10-18T09:07:26.072Z,15.53
2022-10-18T09:10:05.819Z,15.00
2022-10-18T09:12:55.535Z,15.52
2022-10-18T09:15:29.654Z,15.93
2022-10-18T09:18:25.493Z,17.02
2022-10-18T09:21:02.040Z,17.33
2022-10-18T09:24:09.013Z,16.23
2022-10-18T09:26:44.259Z,15.32
2022-10-18T09:29:30.394Z,14.88
2022-10-18T09:32:08.824Z,16.27
2022-10-18T09:34:58.014Z,15.85
2022-10-18T09:37:25.666Z,16.70
2022-10-18T09:40:03.324Z,16.05
2022-10-18T09:42:40.384Z,17.95
2022-10-18T09:45:18.170Z,17.08
2022-10-18T09:47:48.725Z,15.23
2022-10-18T09:50:37.899Z,17.33
2022-10-18T09:53:33.943Z,18.80
2022-10-18T09:56:14.054Z,15.60
2022-10-18T09:58:44.767Z,15.88
2022-10-18T10:01:29.597Z,18.23
2022-10-18T10:03:57.092Z,15.77
2022-10-18T10:06:31.474Z,16.55
2022-10-18T10:11:46.029Z,17.05
2022-10-18T10:14:17.529Z,18.45
2022-10-18T10:16:44.910Z,16.65
2022-10-18T10:19:23.123Z,17.70
2022-10-18T10:21:51.965Z,16.38
2022-10-18T10:24:27.440Z,18.98
2022-10-18T10:27:07.559Z,17.48
2022-10-18T10:29:48.405Z,16.58
2022-10-18T10:32:17.860Z,16.05
2022-10-18T10:34:45.467Z,16.60
2022-10-18T10:37:32.450Z,17.23
2022-10-18T10:40:24.070Z,16.52
2022-10-18T10:43:04.287Z,17.83
2022-10-18T10:45:57.522Z,18.25
2022-10-18T10:48:27.001Z,16.73
2022-10-18T10:51:07.980Z,18.00
2022-10-18T10:53:38.224Z,17.08
2022-10-18T10:56:06.641Z,16.30
2022-10-18T10:58:38.085Z,17.15
2022-10-18T11:01:18.904Z,15.73
2022-10-18T11:03:50.894Z,17.65
2022-10-18T11:06:44.783Z,15.48
2022-10-18T11:09:41.292Z,17.80
2022-10-18T11:12:24.103Z,15.82
2022-10-18T11:14:56.212Z,16.92
2022-10-18T11:17:36.198Z,17.95
2022-10-18T11:20:30.083Z,14.52
2022-10-18T11:23:02.600Z,17.40
2022-10-18T11:26:10.949Z,15.48
2022-10-18T11:29:02.774Z,15.27
2022-10-18T11:31:40.880Z,16.00
2022-10-18T11:34:23.235Z,15.05
2022-10-18T11:37:34.509Z,15.60
2022-10-18T11:40:31.690Z,14.82
2022-10-18T11:43:20.646Z,14.10
2022-10-18T11:46:11.760Z,13.68
2022-10-18T11:49:16.245Z,14.32
2022-10-18T11:52:08.327Z,13.83
2022-10-18T11:54:51.591Z,16.25
2022-10-18T11:57:41.182Z,13.27
2022-10-18T12:00:49.141Z,14.02
2022-10-18T12:03:37.718Z,14.05
2022-10-18T12:06:07.656Z,13.05
2022-10-18T12:08:40.223Z,12.25
2022-10-18T12:11:20.104Z,13.77
2022-10-18T12:13:52.837Z,16.10
2022-10-18T12:16:38.068Z,12.63
2022-10-18T12:19:22.133Z,13.65
2022-10-18T12:21:52.947Z,13.23
2022-10-18T12:24:21.817Z,14.43
2022-10-18T12:26:53.955Z,13.95
2022-10-18T12:29:27.424Z,12.52
2022-10-18T12:34:27.677Z,14.80
2022-10-18T12:37:10.325Z,14.98
2022-10-18T12:40:05.591Z,15.60
2022-10-18T12:42:33.909Z,16.85
2022-10-18T12:45:13.855Z,13.98
2022-10-18T12:47:41.321Z,14.88
2022-10-18T12:50:46.306Z,12.60
2022-10-18T12:53:13.700Z,13.18
2022-10-18T12:58:30.342Z,14.35
2022-10-18T13:01:02.775Z,16.60
2022-10-18T13:03:41.982Z,16.27
2022-10-18T13:06:09.470Z,15.80
2022-10-18T13:08:41.991Z,15.60
2022-10-18T13:11:12.003Z,17.27
2022-10-18T13:13:46.080Z,16.80
2022-10-18T13:16:22.754Z,14.27
2022-10-18T13:18:58.241Z,15.38
2022-10-18T13:21:31.784Z,14.98
2022-10-18T13:24:20.533Z,14.82
2022-10-18T13:27:18.043Z,17.02
2022-10-18T13:30:26.138Z,14.57
2022-10-18T13:33:06.499Z,18.05
2022-10-18T13:36:07.560Z,13.65
2022-10-18T13:38:57.658Z,16.13
2022-10-18T13:41:44.600Z,17.40
2022-10-18T13:44:40.261Z,16.90
2022-10-18T13:47:07.612Z,15.52
2022-10-18T13:49:43.822Z,16.52
2022-10-18T13:52:43.264Z,17.88
2022-10-18T13:55:44.783Z,14.88
2022-10-18T13:58:31.538Z,15.98
2022-10-18T14:01:28.125Z,16.77
2022-10-18T14:04:17.535Z,17.25
2022-10-18T14:06:45.445Z,17.63
2022-10-18T14:09:26.350Z,16.50
2022-10-18T14:12:36.560Z,18.50
2022-10-18T14:15:17.433Z,17.45
2022-10-18T14:18:05.603Z,18.63
2022-10-18T14:20:55.286Z,17.83
2022-10-18T14:23:40.095Z,16.20
2022-10-18T14:26:17.284Z,16.13
2022-10-18T14:29:00.662Z,16.30
2022-10-18T14:31:28.285Z,16.40
2022-10-18T14:33:58.419Z,16.35
2022-10-18T14:36:28.108Z,16.23
2022-10-18T14:39:05.432Z,16.60
2022-10-18T14:41:33.495Z,14.90
2022-10-18T14:44:16.286Z,17.38
2022-10-18T14:46:50.694Z,17.73
2022-10-18T14:49:19.324Z,17.35
2022-10-18T14:51:49.991Z,17.77
2022-10-18T14:54:30.658Z,15.60
2022-10-18T14:57:02.895Z,16.95
2022-10-18T14:59:32.551Z,17.73
2022-10-18T15:02:06.869Z,15.80
2022-10-18T15:07:03.214Z,19.40
2022-10-18T15:09:30.791Z,16.85
2022-10-18T15:11:58.283Z,19.20
2022-10-18T15:14:27.512Z,17.75
2022-10-18T15:17:01.549Z,15.90
2022-10-18T15:19:35.868Z,18.33
2022-10-18T15:25:16.664Z,21.55
2022-10-18T15:27:51.117Z,17.90
2022-10-18T15:30:42.778Z,17.63
2022-10-18T15:33:20.218Z,19.50
2022-10-18T15:35:47.634Z,20.55
2022-10-18T15:38:16.741Z,18.25
2022-10-18T15:40:44.204Z,19.02
2022-10-18T15:43:23.827Z,22.58
2022-10-18T15:46:05.124Z,18.42
2022-10-18T15:48:38.077Z,19.33
2022-10-18T15:51:12.622Z,18.65
2022-10-18T15:53:49.214Z,18.38
2022-10-18T15:56:46.135Z,17.27
2022-10-18T15:59:28.510Z,19.70
2022-10-18T16:01:56.010Z,21.13
2022-10-18T16:04:27.309Z,21.88
2022-10-18T16:06:55.690Z,18.83
2022-10-18T16:09:24.756Z,16.80
2022-10-18T16:11:56.600Z,19.48
2022-10-18T16:14:25.342Z,20.50
2022-10-18T16:17:02.382Z,18.00
2022-10-18T16:19:30.347Z,19.52
2022-10-18T16:22:01.105Z,24.85
2022-10-18T16:24:31.343Z,25.05
2022-10-18T16:26:58.827Z,27.20
2022-10-18T16:29:31.897Z,29.80
2022-10-18T16:32:00.105Z,33.15
2022-10-18T16:34:27.636Z,34.58
2022-10-18T16:36:55.400Z,35.88
2022-10-18T16:39:22.956Z,37.10
2022-10-18T16:41:51.326Z,35.50
2022-10-18T16:44:19.244Z,37.22
2022-10-18T16:46:47.638Z,33.67
2022-10-18T16:49:24.585Z,39.88
2022-10-18T16:51:55.551Z,46.58
2022-10-18T16:54:23.555Z,40.85
2022-10-18T16:56:51.204Z,42.30
2022-10-18T16:59:23.431Z,44.17
2022-10-18T17:01:51.024Z,42.13
2022-10-18T17:04:18.571Z,40.92
2022-10-18T17:06:46.107Z,46.50
2022-10-18T17:09:16.309Z,48.15
2022-10-18T17:11:43.732Z,46.35
2022-10-18T17:14:11.187Z,44.08
2022-10-18T17:16:39.359Z,46.50
2022-10-18T17:19:07.767Z,38.10
2022-10-18T17:21:35.380Z,39.72
2022-10-18T17:24:04.373Z,43.10
2022-10-18T17:26:31.881Z,42.22
2022-10-18T17:29:04.674Z,45.83
2022-10-18T17:31:32.411Z,47.72
2022-10-18T17:34:01.946Z,46.38
2022-10-18T17:36:30.799Z,48.45
2022-10-18T17:38:58.417Z,44.60
2022-10-18T17:41:26.229Z,46.50
2022-10-18T17:43:54.004Z,52.10
2022-10-18T17:46:21.474Z,45.00
2022-10-18T17:48:49.047Z,43.67
2022-10-18T17:51:17.437Z,44.17
2022-10-18T17:53:45.128Z,44.85
2022-10-18T17:56:12.942Z,46.30
2022-10-18T17:58:43.210Z,43.67
2022-10-18T18:01:18.102Z,43.13
2022-10-18T18:03:45.516Z,47.15
2022-10-18T18:06:30.704Z,46.22
2022-10-18T18:08:58.644Z,44.13
2022-10-18T18:11:26.189Z,42.58
2022-10-18T18:13:55.453Z,47.08
2022-10-18T18:16:24.542Z,44.33
2022-10-18T18:18:56.410Z,42.72
2022-10-18T18:21:24.380Z,47.05
2022-10-18T18:23:51.812Z,41.95
2022-10-18T18:26:19.493Z,44.72
2022-10-18T18:28:47.164Z,47.72
2022-10-18T18:31:25.238Z,39.22
2022-10-18T18:33:56.483Z,41.17
2022-10-18T18:36:25.161Z,41.08
2022-10-18T18:38:56.859Z,41.90
2022-10-18T18:41:25.603Z,40.47
2022-10-18T18:44:00.820Z,42.70
2022-10-18T18:46:29.559Z,40.22
2022-10-18T18:48:57.247Z,45.22
2022-10-18T18:51:24.991Z,41.35
2022-10-18T18:53:52.530Z,44.05
2022-10-18T18:56:24.427Z,43.25
2022-10-18T18:58:52.390Z,44.67
2022-10-18T19:01:20.637Z,40.90
2022-10-18T19:03:52.301Z,42.38
2022-10-18T19:06:27.772Z,40.13
2022-10-18T19:09:03.095Z,42.88
2022-10-18T19:11:32.944Z,39.63
2022-10-18T19:14:00.718Z,41.80
2022-10-18T19:16:35.645Z,39.78
2022-10-18T19:19:06.225Z,39.28
2022-10-18T19:21:38.600Z,42.60
2022-10-18T19:24:06.649Z,36.35
2022-10-18T19:27:12.457Z,41.38
2022-10-18T19:29:40.404Z,37.25
2022-10-18T19:32:11.949Z,44.95
2022-10-18T19:34:39.602Z,38.80
2022-10-18T19:37:09.879Z,36.30
2022-10-18T19:39:37.610Z,40.65
2022-10-18T19:42:07.803Z,40.17
2022-10-18T19:44:37.653Z,38.42
2022-10-18T19:47:06.454Z,40.28
2022-10-18T19:49:34.009Z,40.45
2022-10-18T19:52:01.527Z,39.60
2022-10-18T19:54:29.021Z,40.42
2022-10-18T19:56:56.906Z,39.67
2022-10-18T19:59:24.734Z,39.20
2022-10-18T20:01:52.254Z,41.30
2022-10-18T20:04:20.189Z,40.58
2022-10-18T20:06:48.484Z,38.55
2022-10-18T20:09:19.661Z,40.65
2022-10-18T20:11:48.369Z,39.30
2022-10-18T20:14:15.958Z,38.78
2022-10-18T20:16:43.480Z,38.50
2022-10-18T20:19:11.742Z,41.75
2022-10-18T20:21:40.466Z,40.15
2022-10-18T20:24:09.761Z,39.15
2022-10-18T20:26:39.794Z,38.70
2022-10-18T20:29:08.106Z,43.30
2022-10-18T20:31:38.313Z,39.85
2022-10-18T20:34:08.252Z,40.25
2022-10-18T20:36:36.066Z,39.92
2022-10-18T20:39:03.810Z,38.20
2022-10-18T20:41:38.299Z,37.90
2022-10-18T20:44:07.202Z,40.25
2022-10-18T20:46:35.719Z,41.50
2022-10-18T20:49:03.822Z,37.38
2022-10-18T20:51:33.724Z,41.08
2022-10-18T20:56:37.167Z,39.28
2022-10-18T20:59:06.287Z,41.22
2022-10-18T21:01:34.331Z,42.05
2022-10-18T21:04:04.337Z,39.63
2022-10-18T21:06:53.194Z,40.42
2022-10-18T21:09:20.751Z,38.60
2022-10-18T21:11:49.887Z,41.45
2022-10-18T21:14:18.926Z,41.33
2022-10-18T21:16:46.473Z,42.88
2022-10-18T21:19:20.767Z,40.50
2022-10-18T21:24:18.518Z,40.00
2022-10-18T21:26:46.211Z,39.47
2022-10-18T21:29:18.149Z,40.90
2022-10-18T21:31:48.378Z,40.35
2022-10-18T21:34:17.324Z,37.42
2022-10-18T21:36:47.203Z,42.08
2022-10-18T21:39:18.196Z,41.72
2022-10-18T21:41:45.770Z,41.47
2022-10-18T21:44:13.496Z,43.75
2022-10-18T21:46:42.993Z,39.47
2022-10-18T21:49:10.633Z,43.75
2022-10-18T21:51:38.167Z,42.17
2022-10-18T21:54:13.010Z,37.75
2022-10-18T21:56:40.526Z,41.42
2022-10-18T21:59:08.088Z,40.90
2022-10-18T22:01:36.763Z,43.30
2022-10-18T22:04:06.302Z,41.55
2022-10-18T22:09:08.362Z,45.70
2022-10-18T22:11:41.342Z,40.78
2022-10-18T22:14:08.876Z,42.28
2022-10-18T22:16:36.335Z,40.95
2022-10-18T22:19:04.391Z,41.03
2022-10-18T22:21:31.950Z,41.72
2022-10-18T22:23:59.447Z,43.72
2022-10-18T22:26:32.371Z,49.25
2022-10-18T22:29:11.222Z,40.08
2022-10-18T22:31:39.706Z,42.13
2022-10-18T22:34:12.030Z,42.28
2022-10-18T22:36:39.528Z,43.40
2022-10-18T22:39:07.099Z,44.83
2022-10-18T22:41:34.803Z,43.58
2022-10-18T22:44:03.663Z,41.35
2022-10-18T22:46:32.620Z,41.20
2022-10-18T22:49:00.150Z,42.17
2022-10-18T22:51:27.708Z,44.30
2022-10-18T22:53:55.215Z,42.63
2022-10-18T22:56:22.935Z,46.45
2022-10-18T22:58:50.509Z,45.28
2022-10-18T23:01:19.795Z,40.75
2022-10-18T23:03:47.272Z,42.22
2022-10-18T23:06:22.119Z,48.28
2022-10-18T23:08:49.977Z,45.35
2022-10-18T23:11:18.412Z,45.75
2022-10-18T23:13:46.085Z,43.78
2022-10-18T23:16:14.044Z,47.28
2022-10-18T23:18:42.009Z,47.00
2022-10-18T23:21:11.222Z,42.25
2022-10-18T23:23:40.864Z,41.35
2022-10-18T23:26:16.647Z,44.03
2022-10-18T23:28:45.602Z,42.00
2022-10-18T23:31:35.481Z,44.05
2022-10-18T23:34:04.004Z,44.35
2022-10-18T23:36:31.819Z,48.05
2022-10-18T23:38:59.303Z,47.72
2022-10-18T23:41:26.876Z,48.55
2022-10-18T23:43:54.436Z,46.20
2022-10-18T23:46:21.928Z,41.80
2022-10-18T23:48:49.427Z,45.63
2022-10-18T23:51:17.021Z,43.47
2022-10-18T23:53:47.104Z,46.33
2022-10-18T23:56:15.692Z,44.08
2022-10-18T23:58:43.586Z,44.85
